Time;durP1;ratioP1;P1;durP2;ratioP2;P2;SDS_P1;SDS_P2;PMS_P1;PMS_P2;Temp;Humidity;BMP_temperature;BMP_pressure;BME280_temperature;BME280_humidity;BME280_pressure;Samples;Min_cycle;Max_cycle;Signal;HPM_P1;HPM_P2
2022/02/12 00:00:28;;;;;;;19.50;13.40;;;;;;;0.41;100.00;98277.94;5111873;28;20764;-60
2022/02/12 00:02:54;;;;;;;22.73;13.43;;;;;;;0.36;100.00;98272.34;5109458;28;20426;-61
2022/02/12 00:05:21;;;;;;;21.67;13.82;;;;;;;0.35;100.00;98270.72;5111939;28;20388;-61
2022/02/12 00:07:46;;;;;;;20.13;14.13;;;;;;;0.42;100.00;98269.28;5097876;28;20413;-61
2022/02/12 00:10:13;;;;;;;25.83;14.80;;;;;;;0.23;100.00;98271.72;5089741;28;20417;-61
2022/02/12 00:12:38;;;;;;;20.87;14.20;;;;;;;-0.07;100.00;98270.69;5107728;28;20390;-61
2022/02/12 00:15:04;;;;;;;18.90;13.67;;;;;;;0.15;100.00;98264.63;5091773;28;20389;-56
2022/02/12 00:17:30;;;;;;;19.50;13.60;;;;;;;0.21;100.00;98265.88;5091896;28;20397;-55
2022/02/12 00:19:56;;;;;;;22.08;14.00;;;;;;;0.03;100.00;98254.47;5091711;28;20538;-59
2022/02/12 00:22:21;;;;;;;23.17;14.77;;;;;;;0.12;100.00;98256.31;5107127;28;20438;-59
2022/02/12 00:24:47;;;;;;;19.57;13.60;;;;;;;-0.07;100.00;98250.09;5094439;28;20385;-58
2022/02/12 00:27:12;;;;;;;23.33;14.30;;;;;;;-0.07;100.00;98268.13;5111008;28;20494;-56
2022/02/12 00:29:38;;;;;;;19.98;13.95;;;;;;;-0.20;100.00;98256.34;5111693;28;20892;-58
2022/02/12 00:32:03;;;;;;;21.23;14.23;;;;;;;-0.08;100.00;98252.78;5111508;28;20420;-61
2022/02/12 00:34:29;;;;;;;23.93;14.83;;;;;;;-0.24;100.00;98252.38;5092565;28;20870;-61
2022/02/12 00:36:55;;;;;;;24.30;14.35;;;;;;;-0.10;100.00;98245.16;5097367;28;20387;-61
2022/02/12 00:39:20;;;;;;;20.43;13.67;;;;;;;-0.02;100.00;98244.56;5111390;28;20385;-61
2022/02/12 00:41:46;;;;;;;21.33;14.50;;;;;;;-0.09;100.00;98240.81;5111440;28;20407;-61
2022/02/12 00:44:11;;;;;;;19.05;13.68;;;;;;;-0.38;100.00;98242.34;5095452;28;20476;-61
2022/02/12 00:46:37;;;;;;;21.47;13.33;;;;;;;-0.52;100.00;98240.88;5091708;28;20463;-60
2022/02/12 00:49:03;;;;;;;20.30;13.17;;;;;;;-0.43;100.00;98238.38;5092342;28;20866;-60
2022/02/12 00:51:30;;;;;;;19.02;12.85;;;;;;;-0.43;100.00;98230.66;5091305;28;20398;-61
2022/02/12 00:53:55;;;;;;;19.58;13.38;;;;;;;-0.43;100.00;98225.50;5091381;28;20386;-61
2022/02/12 00:56:21;;;;;;;17.25;12.95;;;;;;;-0.35;100.00;98229.22;5091602;28;20390;-61
2022/02/12 00:58:46;;;;;;;19.10;12.38;;;;;;;-0.39;100.00;98235.56;5099061;28;20384;-61
2022/02/12 01:01:12;;;;;;;14.20;11.60;;;;;;;-0.37;100.00;98231.91;5111195;28;20906;-61
2022/02/12 01:03:37;;;;;;;19.17;12.27;;;;;;;-0.50;100.00;98228.69;5103689;28;20462;-61
2022/02/12 01:06:02;;;;;;;17.95;12.52;;;;;;;-0.40;100.00;98232.19;5095097;28;20866;-61
2022/02/12 01:08:28;;;;;;;18.00;12.00;;;;;;;-0.36;100.00;98238.72;5099180;28;20471;-61
2022/02/12 01:10:53;;;;;;;17.43;11.83;;;;;;;-0.39;100.00;98225.28;5095953;28;20465;-61
2022/02/12 01:13:19;;;;;;;17.17;11.97;;;;;;;-0.40;100.00;98233.94;5097990;28;20705;-61
2022/02/12 01:15:44;;;;;;;19.23;12.17;;;;;;;-0.28;100.00;98223.44;5114976;28;20480;-60
2022/02/12 01:18:11;;;;;;;18.90;11.77;;;;;;;-0.25;100.00;98227.56;5113265;28;20395;-59
2022/02/12 01:20:37;;;;;;;19.63;12.23;;;;;;;-0.40;100.00;98234.75;5094616;28;20561;-56
2022/02/12 01:23:03;;;;;;;17.15;11.80;;;;;;;-0.24;100.00;98227.44;5094607;28;20397;-59
2022/02/12 01:25:28;;;;;;;21.20;12.23;;;;;;;-0.15;100.00;98231.84;5094875;28;20397;-59
2022/02/12 01:27:54;;;;;;;17.52;12.35;;;;;;;-0.01;100.00;98228.16;5095843;28;20390;-54
2022/02/12 01:30:20;;;;;;;18.33;12.87;;;;;;;-0.19;100.00;98219.34;5113579;28;20475;-59
2022/02/12 01:32:45;;;;;;;19.70;13.00;;;;;;;-0.20;100.00;98220.25;5114282;28;20391;-57
2022/02/12 01:35:12;;;;;;;17.57;12.03;;;;;;;-0.39;100.00;98235.56;5112423;28;20874;-61
2022/02/12 01:37:38;;;;;;;21.30;12.55;;;;;;;-0.41;100.00;98225.38;5095949;28;20484;-57
2022/02/12 01:40:05;;;;;;;17.13;12.02;;;;;;;-0.24;100.00;98213.72;5114455;28;20400;-59
2022/02/12 01:42:31;;;;;;;18.83;12.67;;;;;;;-0.32;100.00;98216.09;5114162;28;20441;-55
2022/02/12 01:45:01;;;;;;;17.00;11.97;;;;;;;-0.39;100.00;98212.41;5114105;28;20460;-59
2022/02/12 01:47:27;;;;;;;16.88;12.05;;;;;;;-0.45;100.00;98206.78;5092658;28;20397;-61
2022/02/12 01:49:54;;;;;;;19.05;12.52;;;;;;;-0.35;100.00;98206.06;5099711;28;20930;-61
2022/02/12 01:52:21;;;;;;;16.67;12.57;;;;;;;-0.26;100.00;98197.56;5112161;28;20428;-61
2022/02/12 01:54:47;;;;;;;23.00;13.30;;;;;;;-0.12;100.00;98192.97;5114587;28;20420;-61
2022/02/12 01:57:12;;;;;;;18.27;13.15;;;;;;;-0.22;100.00;98196.38;5114499;28;20400;-61
2022/02/12 01:59:40;;;;;;;18.80;12.70;;;;;;;-0.58;100.00;98192.44;5096861;28;20796;-61
2022/02/12 02:02:05;;;;;;;19.95;13.65;;;;;;;-0.50;100.00;98198.59;5100986;28;20414;-61
2022/02/12 02:04:31;;;;;;;19.83;12.90;;;;;;;-0.62;100.00;98197.03;5094025;28;20491;-61
2022/02/12 02:06:56;;;;;;;17.38;12.75;;;;;;;-0.60;100.00;98186.59;5106693;28;20482;-61
2022/02/12 02:09:22;;;;;;;19.42;12.25;;;;;;;-0.63;100.00;98190.25;5111341;28;20756;-61
2022/02/12 02:11:48;;;;;;;17.13;12.30;;;;;;;-0.53;100.00;98182.59;5111675;28;20396;-61
2022/02/12 02:14:14;;;;;;;18.48;11.90;;;;;;;-0.35;100.00;98186.28;5112228;28;20399;-61
2022/02/12 02:16:42;;;;;;;17.92;11.90;;;;;;;-0.32;100.00;98185.19;5114110;28;20385;-61
2022/02/12 02:19:09;;;;;;;16.45;11.43;;;;;;;-0.06;100.00;98189.84;5113710;28;20876;-57
2022/02/12 02:21:36;;;;;;;18.65;11.43;;;;;;;-0.47;100.00;98189.81;5109569;28;20435;-58
2022/02/12 02:24:02;;;;;;;19.15;11.95;;;;;;;-0.37;100.00;98192.47;5093911;28;20451;-59
2022/02/12 02:26:28;;;;;;;16.27;10.55;;;;;;;-0.53;100.00;98196.28;5093594;28;20493;-60
2022/02/12 02:28:53;;;;;;;17.67;11.10;;;;;;;-0.83;100.00;98188.41;5112793;28;20400;-61
2022/02/12 02:31:19;;;;;;;16.57;11.07;;;;;;;-0.89;100.00;98188.88;5099073;28;20426;-61
2022/02/12 02:33:45;;;;;;;17.75;11.88;;;;;;;-0.90;100.00;98190.66;5113607;28;20384;-61
2022/02/12 02:36:12;;;;;;;18.42;11.73;;;;;;;-0.96;100.00;98187.75;5113367;28;20424;-61
2022/02/12 02:38:37;;;;;;;18.27;11.35;;;;;;;-0.84;100.00;98179.84;5113377;28;20392;-61
2022/02/12 02:41:03;;;;;;;18.87;12.10;;;;;;;-0.94;100.00;98175.56;5113401;28;20396;-61
2022/02/12 02:43:29;;;;;;;17.70;12.30;;;;;;;-0.95;100.00;98177.31;5094441;28;20402;-60
2022/02/12 02:45:54;;;;;;;17.50;12.03;;;;;;;-1.09;100.00;98175.00;5111829;28;20843;-57
2022/02/12 02:48:20;;;;;;;19.23;11.83;;;;;;;-1.06;100.00;98168.81;5113435;28;20388;-61
2022/02/12 02:56:15;;;;;;;14.85;10.65;;;;;;;-0.81;100.00;98168.53;5082031;28;20383;-58
2022/02/12 02:58:48;;;;;;;13.98;9.15;;;;;;;-0.87;100.00;98159.53;5113140;28;20400;-61
2022/02/12 03:01:19;;;;;;;13.07;9.10;;;;;;;-0.87;100.00;98164.69;5112761;28;20483;-61
2022/02/12 03:03:47;;;;;;;14.40;9.60;;;;;;;-1.00;100.00;98155.47;5112818;28;20906;-60
2022/02/12 03:06:14;;;;;;;15.55;9.00;;;;;;;-0.95;100.00;98163.66;5112820;28;20943;-61
2022/02/12 03:08:40;;;;;;;13.70;9.05;;;;;;;-0.77;100.00;98154.47;5110756;28;20404;-57
2022/02/12 03:11:06;;;;;;;12.30;8.02;;;;;;;-0.72;100.00;98146.38;5106613;28;20511;-61
2022/02/12 03:13:32;;;;;;;11.23;7.57;;;;;;;-0.78;100.00;98141.75;5111993;28;20471;-60
2022/02/12 03:15:58;;;;;;;11.88;8.10;;;;;;;-1.00;100.00;98140.84;5112558;28;20376;-60
2022/02/12 03:18:24;;;;;;;13.85;7.93;;;;;;;-1.03;100.00;98141.09;5107662;28;20402;-58
2022/02/12 03:20:49;;;;;;;14.75;8.00;;;;;;;-1.02;100.00;98144.50;5100673;28;20395;-60
2022/02/12 03:23:21;;;;;;;14.48;7.55;;;;;;;-1.07;100.00;98146.59;5112896;28;20430;-61
2022/02/12 03:25:47;;;;;;;14.32;7.90;;;;;;;-0.92;100.00;98145.41;5109002;28;20386;-59
2022/02/12 03:28:13;;;;;;;11.90;7.43;;;;;;;-0.89;100.00;98143.38;5098438;28;20732;-60
2022/02/12 03:30:41;;;;;;;11.43;7.28;;;;;;;-0.65;100.00;98144.94;5112364;28;20407;-59
2022/02/12 03:33:07;;;;;;;12.40;7.17;;;;;;;-0.71;100.00;98130.81;5112575;28;20773;-61
2022/02/12 03:35:35;;;;;;;14.45;7.78;;;;;;;-0.73;100.00;98137.03;5112332;28;20470;-57
2022/02/12 03:38:06;;;;;;;13.13;7.90;;;;;;;-0.39;100.00;98135.94;5108150;28;20402;-58
2022/02/12 03:40:32;;;;;;;14.65;7.82;;;;;;;-0.64;100.00;98131.97;5092355;28;20397;-60
2022/02/12 03:42:58;;;;;;;13.55;7.57;;;;;;;-0.46;100.00;98129.66;5091974;28;20762;-60
2022/02/12 03:45:23;;;;;;;13.77;7.30;;;;;;;-0.53;100.00;98129.34;5096659;28;20400;-61
2022/02/12 03:47:49;;;;;;;11.85;7.22;;;;;;;-0.69;100.00;98128.13;5097085;28;20501;-60
2022/02/12 03:50:16;;;;;;;14.93;7.57;;;;;;;-0.48;100.00;98118.66;5092342;28;20397;-58
2022/02/12 03:52:42;;;;;;;14.73;7.40;;;;;;;-0.64;100.00;98120.84;5092503;28;20394;-58
2022/02/12 03:55:08;;;;;;;13.65;7.60;;;;;;;-0.89;100.00;98119.41;5092611;28;20394;-60
2022/02/12 03:57:36;;;;;;;16.20;7.57;;;;;;;-0.95;100.00;98114.78;5111583;28;20399;-61
2022/02/12 04:00:11;;;;;;;12.80;8.18;;;;;;;-1.08;100.00;98119.25;5094607;28;20415;-61
2022/02/12 04:02:43;;;;;;;15.40;8.33;;;;;;;-0.97;100.00;98109.75;5111425;28;20408;-56
2022/02/12 04:05:10;;;;;;;15.80;8.73;;;;;;;-0.79;100.00;98109.22;5112158;28;20498;-59
2022/02/12 04:07:38;;;;;;;12.67;8.50;;;;;;;-1.15;100.00;98105.22;5091875;28;20425;-59
2022/02/12 04:10:08;;;;;;;13.63;9.07;;;;;;;-1.08;100.00;98101.25;5089401;28;20779;-59
2022/02/12 04:12:33;;;;;;;12.70;8.93;;;;;;;-1.00;100.00;98096.28;5092651;28;20409;-59
2022/02/12 04:14:59;;;;;;;14.77;8.87;;;;;;;-1.15;100.00;98097.50;5111305;28;20388;-59
2022/02/12 04:17:25;;;;;;;14.88;9.50;;;;;;;-1.04;100.00;98084.63;5105560;28;20388;-59
2022/02/12 04:19:51;;;;;;;17.73;10.25;;;;;;;-1.06;100.00;98083.94;5111737;28;20453;-59
2022/02/12 04:22:17;;;;;;;16.75;10.48;;;;;;;-0.82;100.00;98078.56;5111008;28;20835;-59
2022/02/12 04:24:42;;;;;;;16.47;10.00;;;;;;;-0.71;100.00;98081.09;5111637;28;20489;-58
2022/02/12 04:27:08;;;;;;;14.40;9.70;;;;;;;-0.71;100.00;98074.19;5096192;28;20397;-57
2022/02/12 04:29:33;;;;;;;18.70;10.43;;;;;;;-0.86;100.00;98067.72;5073777;28;20390;-59
2022/02/12 04:31:59;;;;;;;16.90;10.03;;;;;;;-0.78;100.00;98064.53;5094032;28;20389;-57
2022/02/12 04:34:24;;;;;;;17.47;10.47;;;;;;;-0.53;100.00;98062.41;5111893;28;20395;-56
2022/02/12 04:36:50;;;;;;;18.50;10.13;;;;;;;-0.67;100.00;98060.13;5098834;28;20392;-57
2022/02/12 04:39:16;;;;;;;19.27;9.80;;;;;;;-0.85;100.00;98070.16;5094538;28;20420;-57
2022/02/12 04:41:42;;;;;;;16.67;10.00;;;;;;;-0.70;100.00;98067.28;5110643;28;20566;-58
2022/02/12 04:44:07;;;;;;;18.38;9.70;;;;;;;-0.70;100.00;98055.22;5095674;28;20884;-59
2022/02/12 04:46:32;;;;;;;16.90;10.10;;;;;;;-0.69;100.00;98051.72;5095362;28;20900;-59
2022/02/12 04:48:58;;;;;;;18.83;10.43;;;;;;;-0.73;100.00;98054.69;5095229;28;20451;-61
2022/02/12 04:51:23;;;;;;;15.32;9.90;;;;;;;-0.70;100.00;98047.50;5111748;28;20397;-61
2022/02/12 04:53:51;;;;;;;19.13;9.55;;;;;;;-0.62;100.00;98042.56;5095237;28;20390;-59
2022/02/12 04:56:17;;;;;;;16.13;9.27;;;;;;;-0.86;100.00;98047.13;5095553;28;20386;-61
2022/02/12 04:58:43;;;;;;;16.05;9.13;;;;;;;-0.82;100.00;98051.06;5110452;28;20388;-58
2022/02/12 05:01:19;;;;;;;19.20;9.60;;;;;;;-0.91;100.00;98055.22;5113209;28;20403;-59
2022/02/12 05:03:50;;;;;;;18.60;9.38;;;;;;;-0.98;100.00;98048.09;5095091;28;20406;-58
2022/02/12 05:06:17;;;;;;;16.30;9.13;;;;;;;-0.90;100.00;98040.59;5094944;28;20901;-59
2022/02/12 05:08:42;;;;;;;14.20;8.75;;;;;;;-0.93;100.00;98046.78;5109182;28;20404;-58
2022/02/12 05:11:08;;;;;;;16.25;8.48;;;;;;;-0.86;100.00;98047.13;5098033;28;20433;-58
2022/02/12 05:13:33;;;;;;;18.23;8.95;;;;;;;-1.01;100.00;98045.78;5114573;28;20391;-58
2022/02/12 05:15:59;;;;;;;13.93;8.50;;;;;;;-1.06;100.00;98030.69;5115024;28;20872;-59
2022/02/12 05:18:24;;;;;;;16.00;8.77;;;;;;;-0.95;100.00;98030.66;5115311;28;20416;-59
2022/02/12 05:20:50;;;;;;;20.30;9.53;;;;;;;-0.97;100.00;98026.59;5111429;28;20378;-59
2022/02/12 05:23:15;;;;;;;18.10;9.55;;;;;;;-1.09;100.00;98028.41;5094712;28;20402;-59
2022/02/12 05:25:41;;;;;;;15.93;9.27;;;;;;;-1.17;100.00;98025.59;5094546;28;20953;-54
2022/02/12 05:28:07;;;;;;;18.52;9.13;;;;;;;-1.25;100.00;98022.84;5095462;28;20390;-54
2022/02/12 05:30:33;;;;;;;17.92;8.80;;;;;;;-1.35;100.00;98017.63;5099367;28;20883;-57
2022/02/12 05:32:59;;;;;;;15.00;8.80;;;;;;;-1.12;100.00;98010.66;5115024;28;20372;-55
2022/02/12 05:35:25;;;;;;;13.93;8.43;;;;;;;-1.24;100.00;98009.06;5102546;28;20386;-53
2022/02/12 05:37:50;;;;;;;15.52;8.13;;;;;;;-1.19;100.00;98000.97;5095684;28;20852;-54
2022/02/12 05:40:16;;;;;;;14.13;7.65;;;;;;;-1.22;100.00;97994.28;5096441;28;20402;-53
2022/02/12 05:42:41;;;;;;;15.40;7.75;;;;;;;-1.30;100.00;98002.66;5114264;28;20895;-59
2022/02/12 05:45:07;;;;;;;16.70;8.43;;;;;;;-1.22;100.00;98008.91;5114364;28;20892;-60
2022/02/12 05:47:37;;;;;;;14.18;8.05;;;;;;;-1.20;100.00;98007.03;5102455;28;20390;-59
2022/02/12 05:50:03;;;;;;;16.83;8.05;;;;;;;-1.27;100.00;98007.53;5094201;28;20744;-58
2022/02/12 05:52:28;;;;;;;18.27;7.95;;;;;;;-1.09;100.00;98007.00;5093999;28;20398;-59
2022/02/12 05:54:54;;;;;;;17.97;8.10;;;;;;;-1.27;100.00;97994.66;5094071;28;20746;-61
2022/02/12 05:57:20;;;;;;;16.15;8.10;;;;;;;-1.30;100.00;98004.41;5105025;28;20485;-60
2022/02/12 05:59:45;;;;;;;14.03;7.53;;;;;;;-1.31;100.00;98000.19;5114252;28;20430;-59
2022/02/12 06:02:11;;;;;;;14.70;8.10;;;;;;;-1.00;100.00;97996.78;5104355;28;20415;-57
2022/02/12 06:04:36;;;;;;;13.63;7.13;;;;;;;-0.99;100.00;97985.53;5108160;28;20412;-55
2022/02/12 06:07:02;;;;;;;14.73;7.30;;;;;;;-1.46;100.00;97991.94;5094127;28;20405;-57
2022/02/12 06:09:28;;;;;;;10.37;7.20;;;;;;;-1.35;100.00;97989.34;5091585;28;20414;-56
2022/02/12 06:11:53;;;;;;;12.95;7.18;;;;;;;-1.25;100.00;97984.28;5075697;28;20410;-59
2022/02/12 06:14:19;;;;;;;12.57;7.73;;;;;;;-1.36;100.00;97981.75;5094626;28;20425;-59
2022/02/12 06:16:44;;;;;;;12.25;7.22;;;;;;;-1.38;100.00;97984.44;5094103;28;20731;-59
2022/02/12 06:19:10;;;;;;;13.90;7.53;;;;;;;-1.22;100.00;97989.16;5093693;28;20398;-58
2022/02/12 06:21:35;;;;;;;11.57;7.30;;;;;;;-1.22;100.00;97986.59;5103705;28;20941;-59
2022/02/12 06:24:01;;;;;;;13.57;7.53;;;;;;;-1.33;100.00;97986.63;5100959;28;21339;-59
2022/02/12 06:26:26;;;;;;;12.52;7.85;;;;;;;-1.37;100.00;97987.81;5093553;28;20398;-59
2022/02/12 06:28:52;;;;;;;15.07;7.97;;;;;;;-1.42;100.00;97989.94;5112640;28;20416;-59
2022/02/12 06:31:17;;;;;;;14.67;8.60;;;;;;;-1.28;100.00;97987.88;5113347;28;20437;-59
2022/02/12 06:33:43;;;;;;;16.57;8.93;;;;;;;-1.17;100.00;97986.25;5103616;28;20823;-61
2022/02/12 06:36:14;;;;;;;15.47;8.90;;;;;;;-1.59;100.00;97986.13;5075361;28;20386;-59
2022/02/12 06:38:39;;;;;;;14.70;8.93;;;;;;;-1.71;100.00;97987.91;5093010;28;20958;-59
2022/02/12 06:41:04;;;;;;;15.87;8.73;;;;;;;-1.41;100.00;97991.59;5093022;28;20402;-59
2022/02/12 06:43:30;;;;;;;18.67;8.87;;;;;;;-1.34;100.00;97990.16;5102969;28;20411;-58
2022/02/12 06:45:55;;;;;;;16.35;8.68;;;;;;;-1.43;100.00;97986.56;5113672;28;20392;-58
2022/02/12 06:48:21;;;;;;;15.93;8.73;;;;;;;-1.36;100.00;97986.88;5112732;28;20465;-59
2022/02/12 06:50:47;;;;;;;14.87;8.20;;;;;;;-1.44;100.00;97994.38;5109427;28;20400;-59
2022/02/12 06:53:13;;;;;;;14.25;8.27;;;;;;;-1.34;100.00;97987.59;5100221;28;20475;-59
2022/02/12 06:55:38;;;;;;;17.30;8.05;;;;;;;-1.11;100.00;97976.25;5113033;28;20472;-59
2022/02/12 06:58:05;;;;;;;18.95;7.97;;;;;;;-0.99;100.00;97985.53;5113227;28;20472;-57
2022/02/12 07:00:30;;;;;;;14.32;7.50;;;;;;;-0.97;99.61;97978.53;5109599;28;20405;-56
2022/02/12 07:02:56;;;;;;;14.40;7.47;;;;;;;-0.74;99.00;97978.41;5112676;28;20532;-56
2022/02/12 07:05:22;;;;;;;11.85;7.50;;;;;;;-0.82;98.82;97981.59;5112441;28;20384;-58
2022/02/12 07:07:49;;;;;;;16.63;8.10;;;;;;;-0.79;99.80;97977.97;5112834;28;20396;-59
2022/02/12 07:10:16;;;;;;;13.02;7.18;;;;;;;-0.80;99.53;97987.44;5094864;28;20446;-60
2022/02/12 07:12:42;;;;;;;15.93;7.60;;;;;;;-0.60;99.49;97983.22;5092623;28;20433;-60
2022/02/12 07:15:09;;;;;;;10.43;6.72;;;;;;;-0.15;96.85;97991.41;5092080;28;20816;-60
2022/02/12 07:17:39;;;;;;;14.40;6.40;;;;;;;-0.27;95.90;97987.28;5092873;28;20750;-59
2022/02/12 07:20:07;;;;;;;11.85;6.72;;;;;;;-0.40;97.04;97984.13;5106150;28;20384;-59
2022/02/12 07:22:32;;;;;;;9.98;6.10;;;;;;;-0.24;95.93;97993.03;5111620;28;20479;-55
2022/02/12 07:24:58;;;;;;;11.80;7.27;;;;;;;-0.42;97.78;97992.81;5112755;28;20484;-74
2022/02/12 07:27:23;;;;;;;12.83;6.40;;;;;;;-0.45;95.87;97989.69;5077941;28;20394;-54
2022/02/12 07:29:49;;;;;;;12.83;6.37;;;;;;;-0.29;98.79;97986.63;5100276;28;20474;-54
2022/02/12 07:32:14;;;;;;;13.95;5.93;;;;;;;-0.01;99.03;97991.91;5092433;28;20390;-56
2022/02/12 07:34:40;;;;;;;8.33;5.70;;;;;;;1.21;90.74;97996.63;5092561;28;20390;-59
2022/02/12 07:37:05;;;;;;;11.17;6.03;;;;;;;0.93;89.41;97989.72;5092334;28;20390;-58
2022/02/12 07:39:31;;;;;;;12.18;6.55;;;;;;;0.76;90.28;98006.69;5099679;28;20385;-57
2022/02/12 07:41:56;;;;;;;9.82;6.20;;;;;;;0.37;91.24;97998.91;5092209;28;20490;-59
2022/02/12 07:44:22;;;;;;;11.63;6.10;;;;;;;0.37;91.84;97998.91;5092913;28;20390;-60
2022/02/12 07:46:47;;;;;;;10.73;6.30;;;;;;;0.22;92.13;98009.72;5092333;28;20405;-54
2022/02/12 07:49:13;;;;;;;11.57;6.47;;;;;;;0.25;93.97;97999.97;5092067;28;20401;-58
2022/02/12 07:51:38;;;;;;;11.00;6.68;;;;;;;0.57;91.75;97992.00;5104934;28;20911;-59
2022/02/12 07:54:04;;;;;;;10.65;6.85;;;;;;;0.74;91.44;97988.75;5112217;28;20446;-55
2022/02/12 07:56:30;;;;;;;10.97;6.53;;;;;;;0.71;91.25;97996.78;5110340;28;20467;-60
2022/02/12 07:58:56;;;;;;;13.20;6.90;;;;;;;0.88;91.08;97992.72;5111857;28;20387;-58
2022/02/12 08:01:21;;;;;;;13.17;7.93;;;;;;;0.87;89.95;98000.59;5106881;28;20491;-57
2022/02/12 08:03:47;;;;;;;13.88;8.25;;;;;;;0.78;91.27;98008.19;5111358;28;20404;-58
2022/02/12 08:08:57;;;;;;;12.00;7.07;;;;;;;0.98;90.40;98003.03;5097336;28;20474;-56
2022/02/12 08:11:23;;;;;;;13.77;7.27;;;;;;;1.03;89.50;98008.59;5086578;28;20828;-58
2022/02/12 08:13:50;;;;;;;10.95;6.63;;;;;;;0.81;89.49;98004.53;5090515;28;20417;-56
2022/02/12 08:16:16;;;;;;;11.05;6.07;;;;;;;1.19;89.37;98007.09;5073391;28;20390;-56
2022/02/12 08:18:42;;;;;;;11.38;5.75;;;;;;;1.41;89.51;98005.16;5105280;28;20421;-54
2022/02/12 08:21:07;;;;;;;12.80;6.32;;;;;;;1.57;89.70;98006.19;5102450;28;20408;-60
2022/02/12 08:23:33;;;;;;;10.00;5.97;;;;;;;1.69;88.00;97999.09;5091459;28;20433;-57
2022/02/12 08:25:58;;;;;;;10.07;6.03;;;;;;;1.55;87.55;97996.97;5091357;28;20390;-61
2022/02/12 08:28:24;;;;;;;9.70;5.65;;;;;;;1.56;86.20;97996.03;5091497;28;20425;-61
2022/02/12 08:30:49;;;;;;;11.50;6.10;;;;;;;1.72;86.62;97998.00;5095746;28;20387;-61
2022/02/12 08:33:14;;;;;;;10.07;5.23;;;;;;;1.47;86.18;97996.84;5111760;28;20392;-59
2022/02/12 08:35:40;;;;;;;11.50;5.53;;;;;;;1.41;88.00;97992.22;5111300;28;20436;-60
2022/02/12 08:38:06;;;;;;;11.95;6.35;;;;;;;1.33;87.77;97986.97;5111025;28;20419;-61
2022/02/12 08:40:32;;;;;;;9.40;5.53;;;;;;;1.20;88.09;97980.31;5107460;28;20398;-60
2022/02/12 08:42:58;;;;;;;10.60;5.55;;;;;;;1.57;86.98;97985.53;5091202;28;20414;-60
2022/02/12 08:45:24;;;;;;;9.93;5.53;;;;;;;1.63;87.63;97987.56;5091423;28;20869;-60
2022/02/12 08:47:50;;;;;;;10.50;5.90;;;;;;;1.71;86.51;97988.63;5091243;28;20454;-59
2022/02/12 08:50:16;;;;;;;13.55;5.53;;;;;;;1.70;86.80;97998.16;5091219;28;20866;-57
2022/02/12 08:52:43;;;;;;;10.40;5.85;;;;;;;1.70;86.65;97997.31;5090886;28;20394;-57
2022/02/12 08:55:10;;;;;;;12.00;6.22;;;;;;;1.85;86.68;97991.56;5099697;28;20396;-55
2022/02/12 08:57:36;;;;;;;11.65;5.95;;;;;;;1.78;84.92;97985.34;5111437;28;20464;-54
2022/02/12 09:00:04;;;;;;;13.07;5.85;;;;;;;1.51;85.86;97987.84;5097203;28;20398;-57
2022/02/12 09:02:29;;;;;;;12.57;6.43;;;;;;;1.70;86.13;97987.00;5092063;28;20448;-58
2022/02/12 09:04:55;;;;;;;11.53;6.53;;;;;;;1.58;86.13;97973.44;5091203;28;20439;-59
2022/02/12 09:07:20;;;;;;;11.30;6.70;;;;;;;1.45;86.47;97976.31;5097452;28;20396;-63
2022/02/12 09:09:46;;;;;;;13.68;6.68;;;;;;;1.48;86.37;97965.72;5096005;28;20426;-55
2022/02/12 09:12:12;;;;;;;13.82;7.88;;;;;;;1.32;88.06;97959.50;5108180;28;20392;-53
2022/02/12 09:14:38;;;;;;;12.60;7.13;;;;;;;1.56;87.42;97960.66;5110611;28;20395;-53
2022/02/12 09:17:05;;;;;;;11.80;7.10;;;;;;;1.75;86.67;97969.28;5109086;28;20737;-53
2022/02/12 09:19:31;;;;;;;10.60;6.75;;;;;;;1.74;85.33;97960.72;5111153;28;20394;-54
2022/02/12 09:21:56;;;;;;;11.03;7.17;;;;;;;1.86;85.15;97964.75;5107738;28;20481;-53
2022/02/12 09:24:22;;;;;;;12.03;6.93;;;;;;;1.64;85.28;97960.75;5093846;28;20397;-58
2022/02/12 09:26:47;;;;;;;12.30;7.30;;;;;;;1.73;85.93;97971.22;5094709;28;20838;-59
2022/02/12 09:29:13;;;;;;;10.70;6.80;;;;;;;1.74;85.91;97965.06;5094471;28;20393;-60
2022/02/12 09:31:39;;;;;;;15.88;8.07;;;;;;;1.60;87.94;97962.00;5094834;28;20460;-59
2022/02/12 09:34:05;;;;;;;11.50;7.55;;;;;;;1.83;86.51;97969.41;5094765;28;20402;-59
2022/02/12 09:36:31;;;;;;;14.50;7.38;;;;;;;1.76;86.41;97958.81;5094865;28;20394;-60
2022/02/12 09:38:57;;;;;;;12.00;7.22;;;;;;;1.85;86.06;97954.56;5094476;28;20406;-60
2022/02/12 09:41:23;;;;;;;11.88;7.05;;;;;;;1.88;85.28;97955.09;5095167;28;20394;-59
2022/02/12 09:43:53;;;;;;;11.98;7.30;;;;;;;2.09;84.43;97953.09;5096311;28;20396;-54
2022/02/12 09:46:27;;;;;;;12.60;7.15;;;;;;;2.08;82.77;97956.63;5094309;28;20418;-58
2022/02/12 09:48:54;;;;;;;14.55;6.80;;;;;;;1.86;83.05;97953.59;5091487;28;20425;-53
2022/02/12 09:51:22;;;;;;;12.68;6.90;;;;;;;1.63;83.90;97955.72;5112354;28;20403;-55
2022/02/12 09:53:48;;;;;;;13.63;7.20;;;;;;;2.14;83.69;97951.81;5094741;28;20397;-56
2022/02/12 09:56:13;;;;;;;15.57;7.60;;;;;;;2.29;84.15;97950.38;5094581;28;20715;-53
2022/02/12 09:58:38;;;;;;;14.30;6.83;;;;;;;2.22;81.99;97946.75;5098649;28;20499;-56
2022/02/12 10:01:04;;;;;;;12.57;6.97;;;;;;;2.02;81.81;97941.69;5090244;28;20406;-53
2022/02/12 10:03:30;;;;;;;10.67;7.60;;;;;;;2.08;81.27;97935.94;5095043;28;20557;-57
2022/02/12 10:05:55;;;;;;;11.37;6.70;;;;;;;2.38;81.40;97941.75;5094616;28;20412;-53
2022/02/12 10:08:22;;;;;;;14.53;7.10;;;;;;;2.23;81.55;97936.25;5109991;28;20404;-53
2022/02/12 10:10:50;;;;;;;11.20;7.05;;;;;;;2.38;81.83;97936.56;5098857;28;20430;-56
2022/02/12 10:13:20;;;;;;;12.02;6.40;;;;;;;2.24;80.86;97932.69;5093644;28;20609;-61
2022/02/12 10:15:49;;;;;;;14.15;7.18;;;;;;;2.06;82.81;97927.50;5093750;28;20421;-54
2022/02/12 10:18:18;;;;;;;33.30;21.17;;;;;;;2.75;83.05;97918.31;5108450;28;20750;-55
2022/02/12 10:20:43;;;;;;;13.23;7.80;;;;;;;3.39;79.86;97922.31;5100757;28;20541;-57
2022/02/12 10:23:15;;;;;;;33.10;24.17;;;;;;;4.03;76.93;97921.78;5078822;28;20493;-58
2022/02/12 10:25:45;;;;;;;667.53;547.90;;;;;;;4.16;75.91;97917.78;5094471;28;20901;-55
2022/02/12 10:28:13;;;;;;;49.15;35.60;;;;;;;4.53;72.97;97913.97;5059906;28;20405;-56
2022/02/12 10:30:39;;;;;;;54.78;39.92;;;;;;;4.91;72.83;97910.72;5093482;28;20845;-67
2022/02/12 10:33:07;;;;;;;18.88;11.02;;;;;;;4.71;72.09;97906.03;5105713;28;20387;-55
2022/02/12 10:35:34;;;;;;;15.35;9.23;;;;;;;4.52;71.66;97907.13;5096958;28;20486;-57
2022/02/12 10:38:05;;;;;;;10.40;6.30;;;;;;;4.46;71.07;97902.56;5096698;28;20803;-60
2022/02/12 10:40:32;;;;;;;14.15;7.22;;;;;;;4.57;71.61;97897.88;5113501;28;20412;-61
2022/02/12 10:42:58;;;;;;;10.52;6.38;;;;;;;4.74;70.88;97897.91;5099281;28;20481;-58
2022/02/12 10:45:26;;;;;;;9.30;6.18;;;;;;;4.35;69.63;97895.09;5093629;28;20412;-58
2022/02/12 10:47:53;;;;;;;7.63;5.50;;;;;;;3.89;70.33;97896.47;5099092;28;20868;-56
2022/02/12 10:50:20;;;;;;;7.30;5.07;;;;;;;3.94;72.64;97883.84;5112263;28;20781;-57
2022/02/12 10:52:56;;;;;;;11.02;6.13;;;;;;;4.22;72.28;97876.59;5104816;28;20465;-61
2022/02/12 10:55:38;;;;;;;10.13;6.10;;;;;;;4.22;71.29;97869.66;5094418;28;20389;-61
2022/02/12 10:58:08;;;;;;;10.77;6.03;;;;;;;4.47;71.33;97873.88;5096929;28;20487;-62
2022/02/12 11:00:42;;;;;;;10.30;5.55;;;;;;;4.23;70.90;97871.28;5101416;28;20414;-60
2022/02/12 11:03:12;;;;;;;14.25;7.78;;;;;;;4.32;70.30;97856.50;5087477;28;20424;-54
2022/02/12 11:05:40;;;;;;;10.15;5.82;;;;;;;3.93;71.03;97853.69;5093305;28;20402;-59
2022/02/12 11:08:07;;;;;;;11.55;5.97;;;;;;;4.21;70.02;97855.03;5112499;28;20479;-60
2022/02/12 11:10:37;;;;;;;9.02;5.40;;;;;;;4.11;69.58;97856.97;5094244;28;20759;-60
2022/02/12 11:13:08;;;;;;;9.43;5.68;;;;;;;4.00;69.40;97855.50;5112392;28;20497;-60
2022/02/12 11:15:35;;;;;;;9.98;5.78;;;;;;;4.28;69.84;97850.03;5111960;28;20883;-61
2022/02/12 11:18:05;;;;;;;9.00;5.78;;;;;;;4.44;69.44;97842.25;5112352;28;20872;-60
2022/02/12 11:20:33;;;;;;;10.80;4.85;;;;;;;4.57;66.20;97838.19;5096105;28;20414;-60
2022/02/12 11:23:20;;;;;;;9.52;5.13;;;;;;;4.37;67.89;97836.06;5083771;28;20406;-58
2022/02/12 11:25:50;;;;;;;8.02;4.45;;;;;;;4.16;65.74;97834.78;5092256;28;20677;-65